createdAt,value
2023-11-23T00:03:37.333Z,101798.06
2023-11-23T00:07:41.640Z,101792.88
2023-11-23T00:11:42.957Z,101785.63
2023-11-23T00:15:44.358Z,101769.81
2023-11-23T00:19:47.933Z,101770.38
2023-11-23T00:23:49.662Z,101762.03
2023-11-23T00:27:51.097Z,101755.72
2023-11-23T00:31:52.829Z,101749.97
2023-11-23T00:35:55.320Z,101746.69
2023-11-23T00:39:56.736Z,101749.78
2023-11-23T00:43:58.192Z,101747.59
2023-11-23T00:47:59.697Z,101737.59
2023-11-23T00:52:02.240Z,101737.19
2023-11-23T00:56:04.320Z,101733.72
2023-11-23T01:00:08.306Z,101732.00
2023-11-23T01:04:09.718Z,101727.63
2023-11-23T01:08:12.295Z,101720.31
2023-11-23T01:12:13.716Z,101708.84
2023-11-23T01:16:15.189Z,101708.84
2023-11-23T01:20:16.626Z,101709.63
2023-11-23T01:24:18.410Z,101717.81
2023-11-23T01:28:19.963Z,101712.47
2023-11-23T01:32:21.339Z,101719.31
2023-11-23T01:36:22.683Z,101716.81
2023-11-23T01:40:24.010Z,101712.91
2023-11-23T01:44:25.443Z,101710.63
2023-11-23T01:48:27.972Z,101711.56
2023-11-23T01:52:30.707Z,101717.81
2023-11-23T01:56:32.121Z,101707.34
2023-11-23T02:00:34.097Z,101709.81
2023-11-23T02:04:35.588Z,101709.25
2023-11-23T02:08:37.272Z,101710.34
2023-11-23T02:12:39.426Z,101709.19
2023-11-23T02:16:40.856Z,101704.09
2023-11-23T02:20:48.150Z,101712.25
2023-11-23T02:24:49.626Z,101709.63
2023-11-23T02:28:50.954Z,101698.84
2023-11-23T02:32:52.444Z,101700.25
2023-11-23T02:36:53.997Z,101694.22
2023-11-23T02:40:55.387Z,101690.41
2023-11-23T02:44:56.773Z,101685.44
2023-11-23T02:48:58.250Z,101687.97
2023-11-23T02:52:59.836Z,101680.97
2023-11-23T02:57:01.203Z,101670.53
2023-11-23T03:01:02.539Z,101670.13
2023-11-23T03:05:05.025Z,101675.72
2023-11-23T03:09:06.472Z,101681.47
2023-11-23T03:13:08.525Z,101670.66
2023-11-23T03:17:10.062Z,101667.38
2023-11-23T03:21:12.017Z,101675.19
2023-11-23T03:25:13.572Z,101685.88
2023-11-23T03:29:14.963Z,101664.44
2023-11-23T03:33:16.419Z,101658.50
2023-11-23T03:37:20.121Z,101660.22
2023-11-23T03:41:21.618Z,101659.16
2023-11-23T03:45:23.886Z,101644.78
2023-11-23T03:49:25.426Z,101639.59
2023-11-23T03:53:26.859Z,101637.13
2023-11-23T03:57:28.314Z,101635.63
2023-11-23T04:01:29.767Z,101631.16
2023-11-23T04:05:31.137Z,101628.91
2023-11-23T04:09:32.438Z,101625.47
2023-11-23T04:13:33.835Z,101625.63
2023-11-23T04:17:35.214Z,101626.34
2023-11-23T04:21:36.548Z,101629.72
2023-11-23T04:25:38.407Z,101630.03
2023-11-23T04:29:39.724Z,101628.00
2023-11-23T04:33:41.168Z,101624.16
2023-11-23T04:37:42.628Z,101626.88
2023-11-23T04:41:43.981Z,101614.69
2023-11-23T04:45:45.349Z,101624.03
2023-11-23T04:49:46.685Z,101624.09
2023-11-23T04:53:48.071Z,101625.75
2023-11-23T04:57:49.849Z,101613.72
2023-11-23T05:01:51.194Z,101606.13
2023-11-23T05:05:52.636Z,101603.53
2023-11-23T05:09:54.118Z,101598.63
2023-11-23T05:13:57.618Z,101599.91
2023-11-23T05:17:59.226Z,101599.16
2023-11-23T05:22:00.567Z,101600.78
2023-11-23T05:26:04.518Z,101591.50
2023-11-23T05:30:06.719Z,101593.09
2023-11-23T05:34:08.077Z,101591.06
2023-11-23T05:38:09.379Z,101593.41
2023-11-23T05:42:10.901Z,101595.28
2023-11-23T05:46:14.518Z,101591.22
2023-11-23T05:50:16.367Z,101596.09
2023-11-23T05:54:17.806Z,101599.81
2023-11-23T05:58:19.134Z,101608.03
2023-11-23T06:02:20.538Z,101600.09
2023-11-23T06:06:24.524Z,101606.56
2023-11-23T06:10:28.138Z,101601.50
2023-11-23T06:14:29.702Z,101602.44
2023-11-23T06:18:31.236Z,101596.50
2023-11-23T06:22:32.862Z,101598.34
2023-11-23T06:26:34.168Z,101600.78
2023-11-23T06:30:36.157Z,101595.88
2023-11-23T06:34:40.366Z,101588.75
2023-11-23T06:38:42.686Z,101590.31
2023-11-23T06:42:44.051Z,101580.81
2023-11-23T06:47:05.208Z,101580.03
2023-11-23T06:51:08.048Z,101590.59
2023-11-23T06:55:10.611Z,101590.72
2023-11-23T06:59:12.127Z,101589.38
2023-11-23T07:03:13.702Z,101570.22
2023-11-23T07:07:15.150Z,101564.84
2023-11-23T07:11:20.275Z,101559.03
2023-11-23T07:15:25.977Z,101555.25
2023-11-23T07:19:27.697Z,101554.31
2023-11-23T07:23:29.088Z,101550.22
2023-11-23T07:27:30.741Z,101556.09
2023-11-23T07:31:32.211Z,101564.03
2023-11-23T07:35:33.758Z,101554.41
2023-11-23T07:39:35.209Z,101562.75
2023-11-23T07:43:36.805Z,101561.19
2023-11-23T07:47:42.610Z,101555.03
2023-11-23T07:51:44.027Z,101555.63
2023-11-23T07:55:45.353Z,101558.16
2023-11-23T07:59:46.913Z,101555.78
2023-11-23T08:03:51.403Z,101556.00
2023-11-23T08:07:52.830Z,101554.16
2023-11-23T08:11:58.321Z,101549.03
2023-11-23T08:16:03.051Z,101537.34
2023-11-23T08:20:13.404Z,101545.97
2023-11-23T08:24:16.256Z,101543.34
2023-11-23T08:28:17.644Z,101536.44
2023-11-23T08:32:20.047Z,101527.22
2023-11-23T08:36:21.441Z,101530.78
2023-11-23T08:40:23.025Z,101539.81
2023-11-23T08:44:24.316Z,101547.81
2023-11-23T08:48:25.902Z,101539.28
2023-11-23T08:52:28.957Z,101528.88
2023-11-23T08:56:30.440Z,101534.75
2023-11-23T09:00:31.786Z,101522.81
2023-11-23T09:04:44.460Z,101523.25
2023-11-23T09:08:47.021Z,101523.75
2023-11-23T09:12:48.348Z,101522.41
2023-11-23T09:16:49.683Z,101529.44
2023-11-23T09:20:52.156Z,101529.97
2023-11-23T09:24:53.614Z,101529.22
2023-11-23T09:28:54.960Z,101526.41
2023-11-23T09:32:56.877Z,101519.66
2023-11-23T09:36:58.357Z,101525.09
2023-11-23T09:41:00.086Z,101519.03
2023-11-23T09:45:02.592Z,101532.97
2023-11-23T09:49:05.239Z,101510.34
2023-11-23T09:53:10.421Z,101501.22
2023-11-23T09:57:11.885Z,101498.66
2023-11-23T10:01:14.009Z,101495.63
2023-11-23T10:05:17.286Z,101487.47
2023-11-23T10:09:18.756Z,101501.81
2023-11-23T10:13:22.842Z,101471.47
2023-11-23T10:17:24.207Z,101478.81
2023-11-23T10:21:25.698Z,101461.63
2023-11-23T10:25:36.609Z,101449.34
2023-11-23T10:29:38.309Z,101430.41
2023-11-23T10:33:42.646Z,101452.75
2023-11-23T10:37:44.068Z,101438.00
2023-11-23T10:41:48.517Z,101437.41
2023-11-23T10:45:50.524Z,101435.25
2023-11-23T10:49:55.877Z,101436.72
2023-11-23T10:53:57.348Z,101428.72
2023-11-23T10:58:11.266Z,101428.19
2023-11-23T11:02:13.707Z,101422.75
2023-11-23T11:06:18.619Z,101419.53
2023-11-23T11:10:20.641Z,101399.59
2023-11-23T11:14:35.755Z,101381.19
2023-11-23T11:18:37.483Z,101382.91
2023-11-23T11:22:38.939Z,101369.56
2023-11-23T11:26:43.796Z,101368.22
2023-11-23T11:30:47.371Z,101362.91
2023-11-23T11:34:48.922Z,101346.56
2023-11-23T11:39:00.159Z,101345.94
2023-11-23T11:43:03.637Z,101346.53
2023-11-23T11:47:08.038Z,101343.38
2023-11-23T11:51:10.012Z,101333.09
2023-11-23T11:55:11.805Z,101331.09
2023-11-23T11:59:13.234Z,101319.09
2023-11-23T12:03:15.298Z,101322.44
2023-11-23T12:07:16.891Z,101308.63
2023-11-23T12:11:32.074Z,101302.41
2023-11-23T12:15:34.968Z,101295.84
2023-11-23T12:19:36.584Z,101284.44
2023-11-23T12:23:42.683Z,101270.56
2023-11-23T12:27:45.130Z,101274.78
2023-11-23T12:31:46.462Z,101260.94
2023-11-23T12:35:49.045Z,101250.06
2023-11-23T12:39:55.634Z,101254.50
2023-11-23T12:43:56.999Z,101240.66
2023-11-23T12:47:59.262Z,101241.22
2023-11-23T12:52:02.333Z,101234.66
2023-11-23T12:56:04.031Z,101223.19
2023-11-23T13:00:14.967Z,101214.66
2023-11-23T13:04:20.187Z,101211.06
2023-11-23T13:08:21.877Z,101201.53
2023-11-23T13:12:23.386Z,101172.94
2023-11-23T13:16:25.251Z,101189.53
2023-11-23T13:20:29.865Z,101186.03
2023-11-23T13:24:31.776Z,101166.88
2023-11-23T13:28:36.668Z,101169.00
2023-11-23T13:32:39.871Z,101156.00
2023-11-23T13:36:42.268Z,101150.03
2023-11-23T13:40:44.271Z,101146.22
2023-11-23T13:44:48.290Z,101137.69
2023-11-23T13:48:51.172Z,101125.00
2023-11-23T13:52:52.507Z,101120.34
2023-11-23T13:56:54.175Z,101102.97
2023-11-23T14:00:55.507Z,101095.00
2023-11-23T14:04:56.821Z,101099.72
2023-11-23T14:08:58.275Z,101094.31
2023-11-23T14:13:01.083Z,101080.72
2023-11-23T14:17:02.446Z,101084.03
2023-11-23T14:21:04.041Z,101078.16
2023-11-23T14:25:06.052Z,101057.66
2023-11-23T14:29:08.942Z,101080.53
2023-11-23T14:33:14.306Z,101070.09
2023-11-23T14:37:15.794Z,101045.41
2023-11-23T14:41:23.248Z,101046.44
2023-11-23T14:45:28.381Z,101056.72
2023-11-23T14:49:31.801Z,101047.22
2023-11-23T14:53:33.189Z,101037.59
2023-11-23T14:57:34.727Z,101026.09
2023-11-23T15:01:37.027Z,101028.94
2023-11-23T15:05:38.409Z,101040.38
2023-11-23T15:09:42.141Z,101041.41
2023-11-23T15:13:43.498Z,101031.28
2023-11-23T15:17:44.810Z,101031.47
2023-11-23T15:21:46.622Z,101025.75
2023-11-23T15:25:48.842Z,101016.50
2023-11-23T15:29:50.968Z,101000.13
2023-11-23T15:33:52.482Z,101000.53
2023-11-23T15:37:54.013Z,100999.53
2023-11-23T15:41:55.525Z,101004.13
2023-11-23T15:45:56.832Z,100994.16
2023-11-23T15:49:58.206Z,100990.78
2023-11-23T15:53:59.717Z,100991.69
2023-11-23T15:58:01.233Z,100985.66
2023-11-23T16:02:04.889Z,100971.22
2023-11-23T16:06:07.644Z,100960.97
2023-11-23T16:10:10.295Z,100963.31
2023-11-23T16:14:12.136Z,100957.03
2023-11-23T16:18:14.764Z,100948.41
2023-11-23T16:22:16.163Z,100936.75
2023-11-23T16:26:18.711Z,100947.69
2023-11-23T16:30:20.097Z,100954.69
2023-11-23T16:34:21.863Z,100930.47
2023-11-23T16:38:23.269Z,100902.53
2023-11-23T16:42:24.640Z,100905.16
2023-11-23T16:46:26.280Z,100913.94
2023-11-23T16:50:30.217Z,100913.97
2023-11-23T16:54:32.668Z,100897.69
2023-11-23T16:58:34.037Z,100909.41
2023-11-23T17:02:35.572Z,100924.19
2023-11-23T17:06:38.029Z,100926.25
2023-11-23T17:10:41.049Z,100925.03
2023-11-23T17:14:42.970Z,100929.22
2023-11-23T17:18:44.407Z,100937.50
2023-11-23T17:22:46.233Z,100925.63
2023-11-23T17:26:47.580Z,100914.25
2023-11-23T17:30:49.310Z,100913.03
2023-11-23T17:34:50.861Z,100905.06
2023-11-23T17:38:52.842Z,100894.16
2023-11-23T17:42:54.236Z,100899.16
2023-11-23T17:46:55.715Z,100918.84
2023-11-23T17:50:57.085Z,100905.53
2023-11-23T17:54:58.993Z,100878.19
2023-11-23T17:59:13.588Z,100858.00
2023-11-23T18:03:22.137Z,100839.03
2023-11-23T18:07:23.528Z,100844.22
2023-11-23T18:11:26.154Z,100843.88
2023-11-23T18:15:27.528Z,100833.06
2023-11-23T18:19:28.924Z,100826.81
2023-11-23T18:23:30.329Z,100833.28
2023-11-23T18:27:31.656Z,100826.88
2023-11-23T18:31:34.133Z,100836.38
2023-11-23T18:35:36.592Z,100833.84
2023-11-23T18:39:38.036Z,100832.22
2023-11-23T18:43:39.688Z,100822.06
2023-11-23T18:47:42.440Z,100831.75
2023-11-23T18:51:43.924Z,100820.25
2023-11-23T18:55:46.197Z,100818.97
2023-11-23T18:59:47.654Z,100823.31
2023-11-23T19:03:49.371Z,100819.19
2023-11-23T19:07:50.800Z,100800.16
2023-11-23T19:11:53.613Z,100809.09
2023-11-23T19:15:56.080Z,100788.56
2023-11-23T19:19:57.753Z,100770.88
2023-11-23T19:23:59.410Z,100771.22
2023-11-23T19:28:02.280Z,100768.34
2023-11-23T19:32:11.513Z,100769.31
2023-11-23T19:36:15.053Z,100761.53
2023-11-23T19:40:17.467Z,100743.78
2023-11-23T19:44:19.154Z,100762.66
2023-11-23T19:48:21.079Z,100748.78
2023-11-23T19:52:28.371Z,100741.53
2023-11-23T19:56:29.684Z,100723.06
2023-11-23T20:00:31.430Z,100730.78
2023-11-23T20:04:34.263Z,100729.94
2023-11-23T20:08:35.724Z,100715.88
2023-11-23T20:12:37.574Z,100722.28
2023-11-23T20:16:42.296Z,100710.88
2023-11-23T20:20:43.624Z,100730.31
2023-11-23T20:24:45.255Z,100725.22
2023-11-23T20:28:47.894Z,100709.13
2023-11-23T20:32:50.015Z,100706.47
2023-11-23T20:36:51.397Z,100693.38
2023-11-23T20:40:52.820Z,100678.66
2023-11-23T20:44:54.154Z,100687.00
2023-11-23T20:48:56.852Z,100684.31
2023-11-23T20:52:58.247Z,100677.25
2023-11-23T20:57:00.641Z,100672.03
2023-11-23T21:01:02.586Z,100667.88
2023-11-23T21:05:05.764Z,100676.19
2023-11-23T21:09:09.570Z,100658.44
2023-11-23T21:13:11.207Z,100646.28
2023-11-23T21:17:25.032Z,100638.53
2023-11-23T21:21:26.846Z,100641.31
2023-11-23T21:25:28.245Z,100623.28
2023-11-23T21:29:29.558Z,100608.38
2023-11-23T21:33:30.917Z,100595.16
2023-11-23T21:37:32.336Z,100593.00
2023-11-23T21:41:33.768Z,100578.88
2023-11-23T21:45:36.408Z,100567.13
2023-11-23T21:49:41.075Z,100559.25
2023-11-23T21:53:42.478Z,100555.16
2023-11-23T21:57:43.935Z,100557.03
2023-11-23T22:01:45.367Z,100551.63
2023-11-23T22:05:46.827Z,100550.84
2023-11-23T22:09:48.213Z,100544.97
2023-11-23T22:13:49.622Z,100539.66
2023-11-23T22:17:54.173Z,100537.09
2023-11-23T22:21:55.763Z,100527.34
2023-11-23T22:25:57.376Z,100525.69
2023-11-23T22:29:58.917Z,100517.06
2023-11-23T22:34:00.621Z,100512.22
2023-11-23T22:38:06.947Z,100520.31
2023-11-23T22:42:09.919Z,100503.13
2023-11-23T22:46:12.528Z,100497.75
2023-11-23T22:50:14.169Z,100484.81
2023-11-23T22:54:15.684Z,100482.72
2023-11-23T22:58:17.001Z,100483.09
2023-11-23T23:02:19.005Z,100473.59
2023-11-23T23:06:21.818Z,100466.94
2023-11-23T23:10:25.158Z,100453.09
2023-11-23T23:14:28.933Z,100455.38
2023-11-23T23:18:30.410Z,100445.22
2023-11-23T23:22:34.749Z,100461.41
2023-11-23T23:26:36.094Z,100448.69
2023-11-23T23:30:37.535Z,100518.53
2023-11-23T23:34:39.248Z,100497.25
2023-11-23T23:38:40.714Z,100508.25
2023-11-23T23:42:43.429Z,100513.41
2023-11-23T23:46:44.919Z,100514.25
2023-11-23T23:50:46.395Z,100514.66
2023-11-23T23:54:49.858Z,100511.19
2023-11-23T23:58:53.430Z,100521.06
